Glenwood, MN

11:56 PM CDT on September 22, 2017 (GMT -0500)
Glenwood Municipal

Weather History for KGHW - September, 2012

Change the Weather History Date:

Wednesday, September 19, 2012

  Actual Average Record
Temperature  
Mean Temperature 57 °F -  
Max Temperature 68 °F 71 °F 93 °F (1984)
Min Temperature 46 °F 46 °F 31 °F (1991)
Degree Days  
Heating Degree Days 8    
Growing Degree Days 7 (Base 50)    
Moisture  
Dew Point 38 °F    
Average Humidity 51    
Maximum Humidity 87    
Minimum Humidity 32    
Precipitation  
Precipitation 0.00 in - - ()
Sea Level Pressure  
Sea Level Pressure 29.75 in    
Wind  
Wind Speed 14 mph (West)    
Max Wind Speed 33 mph    
Max Gust Speed 43 mph    
Visibility 10 miles    
Events Rain    
Averages and records for this station are not official NWS values.
T = Trace of Precipitation, MM = Missing Value Source: NWS Daily Summary

Daily Weather History Graph

Daily Weather History Graph

Search for Another Location

Airport or City:

Trip Planner

Search our weather history database for the weather conditions in past years. The results will help you decide how hot, cold, wet, or windy it might be!

Date:

Astronomy

Sep. 19, 2012 Rise Set
Actual Time 7:05 AM CDT 7:23 PM CDT
Civil Twilight 6:35 AM CDT 7:53 PM CDT
Nautical Twilight 6:00 AM CDT 8:28 PM CDT
Astronomical Twilight 5:24 AM CDT 9:04 PM CDT
Moon 11:32 AM CDT (9/19) 9:17 PM CDT (9/19)
Length of Visible Light 13h 17m
Length of Day
12h 18m
Waxing Crescent, 17% of the Moon is Illuminated
Sep 19
Waxing Crescent
Sep 22
First Quarter
Sep 29
Full
Oct 8
Last Quarter
Oct 15
New

Hourly Weather History & Observations

Time (CDT) Temp. Windchill Dew Point Humidity Pressure Visibility Wind Dir Wind Speed Gust Speed Precip Events Conditions
12:14 AM 51.8 °F - 32.0 °F 47% 29.80 in 10.0 mi SSE 11.5 mph 20.7 mph N/A   Clear
12:33 AM 51.8 °F - 32.0 °F 47% 29.79 in 10.0 mi SSE 12.7 mph - N/A   Clear
12:54 AM 51.8 °F - 32.0 °F 47% 29.78 in 10.0 mi SSE 11.5 mph 19.6 mph N/A   Clear
1:14 AM 51.8 °F - 32.0 °F 47% 29.77 in 10.0 mi South 11.5 mph - N/A   Clear
1:33 AM 51.8 °F - 32.0 °F 47% 29.75 in 10.0 mi South 12.7 mph - N/A   Clear
1:54 AM 51.8 °F - 32.0 °F 47% 29.75 in 10.0 mi South 10.4 mph - N/A   Clear
2:13 AM 51.8 °F - 33.8 °F 50% 29.75 in 10.0 mi South 9.2 mph - N/A   Clear
2:33 AM 51.8 °F - 33.8 °F 50% 29.73 in 10.0 mi South 12.7 mph - N/A   Clear
2:54 AM 51.8 °F - 33.8 °F 50% 29.71 in 10.0 mi South 11.5 mph - N/A   Clear
3:13 AM 51.8 °F - 35.6 °F 54% 29.71 in 10.0 mi South 13.8 mph - N/A   Clear
3:33 AM 51.8 °F - 35.6 °F 54% 29.69 in 10.0 mi South 15.0 mph - N/A   Clear
3:54 AM 51.8 °F - 35.6 °F 54% 29.66 in 10.0 mi South 11.5 mph - N/A   Clear
4:13 AM 51.8 °F - 37.4 °F 58% 29.65 in 10.0 mi South 11.5 mph - N/A   Clear
4:33 AM 51.8 °F - 37.4 °F 58% 29.65 in 10.0 mi South 9.2 mph - N/A   Clear
4:54 AM 50.0 °F - 37.4 °F 62% 29.66 in 10.0 mi SSW 8.1 mph - N/A   Clear
5:13 AM 48.2 °F - 37.4 °F 66% 29.65 in 10.0 mi SSW 9.2 mph - N/A   Clear
5:33 AM 48.2 °F - 37.4 °F 66% 29.65 in 10.0 mi SSW 9.2 mph - N/A   Scattered Clouds
5:54 AM 50.0 °F - 37.4 °F 62% 29.66 in 10.0 mi SW 6.9 mph - N/A   Scattered Clouds
6:13 AM 50.0 °F - 39.2 °F 66% 29.65 in 10.0 mi SSW 6.9 mph - N/A   Scattered Clouds
6:33 AM 48.2 °F - 39.2 °F 71% 29.66 in 10.0 mi SSW 4.6 mph - N/A   Clear
6:54 AM 51.8 °F - 39.2 °F 62% 29.69 in 10.0 mi WSW 9.2 mph - N/A   Mostly Cloudy
7:13 AM 51.8 °F - 42.8 °F 71% 29.65 in 10.0 mi Calm Calm - N/A Rain Rain
7:33 AM 50.0 °F - 44.6 °F 82% 29.65 in 10.0 mi South 5.8 mph 9.2 mph N/A   Light Drizzle
7:54 AM 46.4 °F 42.9 °F 42.8 °F 87% 29.67 in 10.0 mi WSW 6.9 mph - N/A   Clear
8:13 AM 50.0 °F - 44.6 °F 82% 29.65 in 10.0 mi SSW 6.9 mph - N/A   Clear
8:34 AM 53.6 °F - 44.6 °F 72% 29.67 in 10.0 mi West 12.7 mph - N/A   Clear
8:54 AM 55.4 °F - 42.8 °F 63% 29.67 in 10.0 mi West 12.7 mph - N/A   Clear
9:13 AM 57.2 °F - 42.8 °F 59% 29.67 in 10.0 mi West 12.7 mph 19.6 mph N/A   Clear
9:34 AM 59.0 °F - 44.6 °F 59% 29.68 in 10.0 mi West 10.4 mph - N/A   Clear
9:54 AM 60.8 °F - 44.6 °F 55% 29.68 in 10.0 mi WNW 16.1 mph 21.9 mph N/A   Clear
10:13 AM 62.6 °F - 42.8 °F 48% 29.68 in 10.0 mi WNW 23.0 mph 27.6 mph N/A   Clear
10:34 AM 64.4 °F - 42.8 °F 45% 29.69 in 10.0 mi WNW 23.0 mph 32.2 mph N/A   Clear
10:53 AM 66.2 °F - 42.8 °F 43% 29.69 in 10.0 mi WNW 20.7 mph 31.1 mph N/A   Clear
11:13 AM 66.2 °F - 42.8 °F 43% 29.69 in 10.0 mi West 24.2 mph 31.1 mph N/A   Clear
11:34 AM 66.2 °F - 42.8 °F 43% 29.70 in 10.0 mi WNW 21.9 mph 33.4 mph N/A   Clear
11:53 AM 68.0 °F - 42.8 °F 40% 29.70 in 10.0 mi WNW 27.6 mph 34.5 mph N/A   Clear
12:13 PM 66.2 °F - 41.0 °F 40% 29.70 in 10.0 mi WNW 23.0 mph 34.5 mph N/A   Clear
12:34 PM 68.0 °F - 41.0 °F 37% 29.71 in 10.0 mi West 29.9 mph 36.8 mph N/A   Clear
12:54 PM 66.2 °F - 41.0 °F 40% 29.72 in 10.0 mi WNW 24.2 mph 34.5 mph N/A   Mostly Cloudy
1:13 PM 66.2 °F - 39.2 °F 37% 29.73 in 10.0 mi WNW 32.2 mph 39.1 mph N/A   Mostly Cloudy
1:34 PM 68.0 °F - 39.2 °F 35% 29.74 in 10.0 mi WNW 29.9 mph 38.0 mph N/A   Scattered Clouds
1:53 PM 66.2 °F - 37.4 °F 35% 29.73 in 10.0 mi WNW 33.4 mph 42.6 mph N/A   Scattered Clouds
2:34 PM 64.4 °F - 35.6 °F 34% 29.74 in 10.0 mi WNW 25.3 mph 35.7 mph N/A   Clear
2:53 PM 68.0 °F - 37.4 °F 33% 29.75 in 10.0 mi NW 25.3 mph 36.8 mph N/A   Scattered Clouds
3:13 PM 66.2 °F - 35.6 °F 32% 29.75 in 10.0 mi WNW 28.8 mph 39.1 mph N/A   Scattered Clouds
3:34 PM 64.4 °F - 35.6 °F 34% 29.76 in 10.0 mi WNW 26.5 mph 36.8 mph N/A   Scattered Clouds
3:53 PM 62.6 °F - 37.4 °F 39% 29.77 in 10.0 mi WNW 26.5 mph 39.1 mph N/A   Scattered Clouds
4:13 PM 62.6 °F - 35.6 °F 37% 29.78 in 10.0 mi NW 25.3 mph 35.7 mph N/A   Mostly Cloudy
4:34 PM 64.4 °F - 35.6 °F 34% 29.78 in 10.0 mi WNW 31.1 mph 38.0 mph N/A   Scattered Clouds
4:53 PM 62.6 °F - 37.4 °F 39% 29.79 in 10.0 mi WNW 21.9 mph 34.5 mph N/A   Mostly Cloudy
5:13 PM 62.6 °F - 37.4 °F 39% 29.80 in 10.0 mi NW 20.7 mph 27.6 mph N/A   Mostly Cloudy
5:34 PM 62.6 °F - 37.4 °F 39% 29.81 in 10.0 mi WNW 18.4 mph 25.3 mph N/A   Mostly Cloudy
5:53 PM 62.6 °F - 37.4 °F 39% 29.81 in 10.0 mi WNW 18.4 mph 25.3 mph N/A   Mostly Cloudy
6:13 PM 62.6 °F - 37.4 °F 39% 29.82 in 10.0 mi NW 18.4 mph 26.5 mph N/A   Scattered Clouds
6:34 PM 60.8 °F - 37.4 °F 42% 29.82 in 10.0 mi NW 16.1 mph - N/A   Scattered Clouds
6:53 PM 59.0 °F - 37.4 °F 45% 29.83 in 10.0 mi NW 10.4 mph 19.6 mph N/A   Clear
7:13 PM 57.2 °F - 37.4 °F 48% 29.83 in 10.0 mi NW 8.1 mph - N/A   Scattered Clouds
7:34 PM 55.4 °F - 37.4 °F 51% 29.84 in 10.0 mi WNW 9.2 mph - N/A   Clear
8:13 PM 55.4 °F - 35.6 °F 47% 29.85 in 10.0 mi WNW 11.5 mph - N/A   Clear
8:34 PM 55.4 °F - 35.6 °F 47% 29.85 in 10.0 mi WNW 10.4 mph - N/A   Clear
8:53 PM 53.6 °F - 33.8 °F 47% 29.85 in 10.0 mi West 8.1 mph - N/A   Clear
9:34 PM 51.8 °F - 33.8 °F 50% 29.86 in 10.0 mi West 8.1 mph - N/A   Clear
9:53 PM 51.8 °F - 33.8 °F 50% 29.86 in 10.0 mi WNW 9.2 mph - N/A   Clear
10:13 PM 51.8 °F - 33.8 °F 50% 29.86 in 10.0 mi West 8.1 mph - N/A   Clear
10:33 PM 50.0 °F - 33.8 °F 54% 29.87 in 10.0 mi West 9.2 mph - N/A   Clear
10:53 PM 48.2 °F - 35.6 °F 62% 29.87 in 10.0 mi West 9.2 mph - N/A   Clear
11:13 PM 48.2 °F - 33.8 °F 58% 29.87 in 10.0 mi West 9.2 mph - N/A   Clear
11:33 PM 48.2 °F - 33.8 °F 58% 29.87 in 10.0 mi West 8.1 mph - N/A   Clear
11:53 PM 48.2 °F - 33.8 °F 58% 29.88 in 10.0 mi West 8.1 mph - N/A   Clear